Time;durP1;ratioP1;P1;durP2;ratioP2;P2;SDS_P1;SDS_P2;PMS_P1;PMS_P2;Temp;Humidity;BMP_temperature;BMP_pressure;BME280_temperature;BME280_humidity;BME280_pressure;Samples;Min_cycle;Max_cycle;Signal;HPM_P1;HPM_P2
2021/12/20 00:00:11;;;;;;;7.40;4.18;;;;;;;14.82;51.56;102528.94;4937450;29;20577;-59
2021/12/20 00:02:37;;;;;;;12.63;4.88;;;;;;;14.82;50.47;102518.16;4932136;29;20553;-59
2021/12/20 00:05:03;;;;;;;10.25;4.00;;;;;;;14.82;51.68;102515.44;4924070;29;20063;-59
2021/12/20 00:07:29;;;;;;;9.48;4.40;;;;;;;14.82;51.33;102523.56;4924942;29;20481;-59
2021/12/20 00:09:54;;;;;;;10.88;4.13;;;;;;;14.82;50.83;102515.44;4926342;29;20082;-60
2021/12/20 00:12:20;;;;;;;11.77;4.43;;;;;;;14.83;50.55;102506.38;4925655;29;20027;-59
2021/12/20 00:14:45;;;;;;;10.23;3.83;;;;;;;14.81;51.66;102502.94;4926636;29;20078;-60
2021/12/20 00:17:10;;;;;;;12.45;5.32;;;;;;;14.80;50.46;102493.97;4924589;28;20497;-60
2021/12/20 00:19:36;;;;;;;9.82;3.78;;;;;;;14.78;52.00;102486.97;4927259;29;20032;-60
2021/12/20 00:22:01;;;;;;;8.27;4.35;;;;;;;14.84;50.49;102508.09;4909431;29;20036;-61
2021/12/20 00:24:27;;;;;;;8.63;4.22;;;;;;;14.83;50.21;102503.66;4926414;29;20027;-60
2021/12/20 00:26:52;;;;;;;5.95;4.15;;;;;;;14.83;51.00;102493.75;4926432;29;20119;-60
2021/12/20 00:29:18;;;;;;;8.18;3.78;;;;;;;14.82;50.47;102504.66;4924149;29;20400;-60
2021/12/20 00:31:43;;;;;;;12.77;4.43;;;;;;;14.82;51.96;102492.03;4926425;29;20031;-59
2021/12/20 00:34:08;;;;;;;9.95;3.63;;;;;;;14.82;51.34;102491.16;4926905;29;20036;-59
2021/12/20 00:36:34;;;;;;;15.02;4.45;;;;;;;14.83;51.74;102504.53;4925363;29;20036;-61
2021/12/20 00:41:43;;;;;;;7.63;4.15;;;;;;;14.82;50.21;102496.56;4926542;29;20504;-61
2021/12/20 00:44:08;;;;;;;15.57;4.25;;;;;;;14.81;51.08;102479.50;4926659;29;20036;-59
2021/12/20 00:46:34;;;;;;;9.20;3.97;;;;;;;14.81;51.54;102479.50;4925303;29;20393;-60
2021/12/20 00:48:59;;;;;;;9.05;4.18;;;;;;;14.81;50.46;102490.31;4923447;29;20090;-59
2021/12/20 00:51:25;;;;;;;10.00;3.65;;;;;;;14.83;50.56;102487.47;4924332;29;20023;-60
2021/12/20 00:53:50;;;;;;;13.52;3.85;;;;;;;14.83;50.57;102474.84;4924708;29;20849;-60
2021/12/20 00:56:15;;;;;;;11.52;3.45;;;;;;;14.83;50.53;102482.94;4927042;29;20027;-59
2021/12/20 00:58:41;;;;;;;12.05;3.72;;;;;;;14.84;50.79;102487.38;4924127;29;20117;-60
2021/12/20 01:01:09;;;;;;;8.85;4.13;;;;;;;14.85;51.67;102485.53;4926178;29;20087;-59
2021/12/20 01:03:34;;;;;;;10.88;4.30;;;;;;;14.84;51.72;102483.81;4927394;29;20028;-60
2021/12/20 01:06:01;;;;;;;6.38;3.45;;;;;;;14.84;50.55;102491.91;4929573;28;20078;-60
2021/12/20 01:08:30;;;;;;;7.78;3.75;;;;;;;14.86;51.44;102492.66;4929244;29;20016;-59
2021/12/20 01:10:56;;;;;;;9.30;3.85;;;;;;;14.85;51.84;102490.94;4927782;29;20028;-60
2021/12/20 01:13:24;;;;;;;12.18;3.92;;;;;;;14.84;51.94;102490.06;4929649;29;20478;-59
2021/12/20 01:15:52;;;;;;;8.60;4.78;;;;;;;14.85;50.17;102485.53;4928359;29;20028;-59
2021/12/20 01:18:20;;;;;;;6.22;3.30;;;;;;;14.86;51.49;102484.56;4916246;29;20500;-60
2021/12/20 01:20:45;;;;;;;6.90;4.00;;;;;;;14.86;51.00;102479.16;4929341;29;20103;-60
2021/12/20 01:23:12;;;;;;;6.97;3.22;;;;;;;14.84;50.71;102483.81;4926914;28;20028;-60
2021/12/20 01:25:38;;;;;;;5.78;2.83;;;;;;;14.84;51.07;102478.41;4929145;29;20031;-60
2021/12/20 01:28:04;;;;;;;8.68;3.80;;;;;;;14.84;50.65;102483.81;4938053;29;20560;-59
2021/12/20 01:30:30;;;;;;;9.05;3.70;;;;;;;14.83;50.26;102491.03;4929658;29;20027;-59
2021/12/20 01:32:56;;;;;;;8.00;2.83;;;;;;;14.83;51.46;102480.25;4949654;29;20027;-59
2021/12/20 01:35:23;;;;;;;6.00;3.22;;;;;;;14.83;50.04;102477.56;4931818;29;20035;-59
2021/12/20 01:37:48;;;;;;;11.57;3.30;;;;;;;14.85;51.50;102474.75;4931689;29;20396;-60
2021/12/20 01:40:15;;;;;;;5.50;3.00;;;;;;;14.83;51.66;102477.56;4916338;29;20035;-60
2021/12/20 01:42:41;;;;;;;5.22;2.88;;;;;;;14.84;50.38;102484.69;4947747;29;20548;-59
2021/12/20 01:45:16;;;;;;;7.13;3.78;;;;;;;14.84;51.35;102483.81;4948052;29;20046;-60
2021/12/20 01:47:45;;;;;;;6.88;2.75;;;;;;;14.82;50.59;102480.38;4949252;29;20093;-60
2021/12/20 01:50:21;;;;;;;6.88;2.85;;;;;;;14.84;51.34;102484.69;4948790;29;20028;-59
2021/12/20 01:52:47;;;;;;;8.23;3.05;;;;;;;14.83;50.41;102479.38;4948102;29;20030;-60
2021/12/20 01:55:18;;;;;;;5.70;2.83;;;;;;;14.85;50.95;102485.53;4930426;29;20039;-60
2021/12/20 01:57:44;;;;;;;8.65;2.70;;;;;;;14.83;51.53;102487.47;4948307;29;20420;-59
2021/12/20 02:00:13;;;;;;;9.45;2.65;;;;;;;14.83;50.52;102482.94;4931024;29;20022;-60
2021/12/20 02:02:40;;;;;;;7.30;2.85;;;;;;;14.82;51.08;102475.84;4948564;29;20023;-60
2021/12/20 02:05:17;;;;;;;7.80;2.22;;;;;;;14.84;49.74;102481.13;4947453;29;20034;-59
2021/12/20 02:08:13;;;;;;;5.95;2.55;;;;;;;14.83;49.77;102476.69;4932970;29;20035;-59
2021/12/20 02:10:39;;;;;;;6.25;2.83;;;;;;;14.78;50.44;102463.56;4930830;29;20032;-60
2021/12/20 02:13:04;;;;;;;7.97;2.70;;;;;;;14.81;49.86;102478.66;4930155;29;20035;-59
2021/12/20 02:15:29;;;;;;;4.90;2.58;;;;;;;14.81;50.65;102476.81;4947163;29;20034;-60
2021/12/20 02:17:55;;;;;;;4.43;2.88;;;;;;;14.81;50.64;102468.72;4947881;29;20114;-59
2021/12/20 02:20:25;;;;;;;6.15;2.90;;;;;;;14.80;50.01;102467.00;4914467;29;20038;-60
2021/12/20 02:22:54;;;;;;;5.57;2.50;;;;;;;14.81;50.49;102478.66;4929985;29;20560;-60
2021/12/20 02:25:20;;;;;;;8.18;3.15;;;;;;;14.80;50.59;102475.09;4948903;29;20376;-60
2021/12/20 02:27:45;;;;;;;7.32;2.53;;;;;;;14.83;51.19;102482.09;4948539;29;20043;-59
2021/12/20 02:30:34;;;;;;;5.38;2.83;;;;;;;14.81;51.11;102473.25;4945417;29;20028;-60
2021/12/20 02:38:34;;;;;;;8.13;2.47;;;;;;;14.75;50.51;102458.38;4948099;29;20043;-59
2021/12/20 02:41:10;;;;;;;2.50;1.67;;;;;;;14.78;49.89;102465.38;4947623;29;20400;-60
2021/12/20 02:43:40;;;;;;;10.00;2.05;;;;;;;14.79;49.89;102469.81;4925965;29;20130;-60
2021/12/20 02:46:24;;;;;;;7.22;2.35;;;;;;;14.78;51.43;102460.00;4921315;29;20115;-59
2021/12/20 02:48:49;;;;;;;2.70;1.63;;;;;;;14.76;50.10;102467.34;4923707;29;20481;-59
2021/12/20 02:51:14;;;;;;;4.88;2.45;;;;;;;14.78;50.41;102457.28;4948982;29;20041;-59
2021/12/20 02:53:40;;;;;;;7.22;1.95;;;;;;;14.77;50.40;102456.44;4955586;29;20622;-60
2021/12/20 02:56:05;;;;;;;9.40;1.92;;;;;;;14.75;50.01;102453.00;4943722;29;20393;-60
2021/12/20 02:58:30;;;;;;;4.75;2.22;;;;;;;14.78;51.33;102462.69;4939565;29;20115;-59
2021/12/20 03:00:56;;;;;;;6.07;2.03;;;;;;;14.75;51.26;102462.91;4946334;29;20109;-59
2021/12/20 03:03:21;;;;;;;7.43;2.17;;;;;;;14.76;51.18;102459.25;4937490;29;20548;-60
2021/12/20 03:05:46;;;;;;;7.82;1.83;;;;;;;14.76;49.70;102464.66;4937633;29;20032;-59
2021/12/20 03:08:12;;;;;;;4.72;2.22;;;;;;;14.75;51.21;102463.78;4937305;29;20115;-59
2021/12/20 03:10:41;;;;;;;7.40;2.20;;;;;;;14.71;50.79;102459.63;4937173;29;20023;-60
2021/12/20 03:13:07;;;;;;;5.93;1.98;;;;;;;14.72;50.88;102453.22;4937322;29;20110;-60
2021/12/20 03:15:32;;;;;;;9.68;2.33;;;;;;;14.74;49.59;102461.22;4936957;29;20049;-60
2021/12/20 03:17:58;;;;;;;5.97;1.98;;;;;;;14.74;49.79;102455.81;4937137;29;20388;-60
2021/12/20 03:20:23;;;;;;;4.60;2.42;;;;;;;14.75;50.45;102462.91;4937243;29;20063;-60
2021/12/20 03:22:49;;;;;;;7.18;2.33;;;;;;;14.74;49.48;102462.06;4937389;29;20027;-59
2021/12/20 03:25:14;;;;;;;4.30;1.70;;;;;;;14.72;50.00;102455.06;4936078;29;20031;-60
2021/12/20 03:27:40;;;;;;;6.72;1.50;;;;;;;14.61;50.42;102434.31;4920044;29;20048;-59
2021/12/20 03:30:08;;;;;;;7.22;2.10;;;;;;;14.73;49.93;102454.97;4937755;29;20042;-60
2021/12/20 03:32:33;;;;;;;5.63;2.30;;;;;;;14.73;49.61;102462.19;4938161;29;20389;-60
2021/12/20 03:34:59;;;;;;;5.93;2.08;;;;;;;14.72;50.59;102468.53;4937756;29;20078;-59
2021/12/20 03:37:24;;;;;;;8.13;1.75;;;;;;;14.69;49.30;102463.38;4937872;29;20038;-60
2021/12/20 03:39:49;;;;;;;5.30;1.42;;;;;;;14.69;49.34;102468.78;4937756;29;20091;-59
2021/12/20 03:42:15;;;;;;;3.05;1.70;;;;;;;14.69;50.02;102457.97;4937706;29;20082;-60
2021/12/20 03:44:44;;;;;;;7.13;1.80;;;;;;;14.70;49.91;102459.72;4920683;29;20087;-59
2021/12/20 03:47:12;;;;;;;5.63;1.80;;;;;;;14.68;50.32;102462.53;4938023;29;20027;-59
2021/12/20 03:49:37;;;;;;;9.32;2.20;;;;;;;14.66;50.98;102463.59;4937753;29;20020;-59
2021/12/20 03:52:04;;;;;;;5.50;1.65;;;;;;;14.65;49.34;102456.50;4920307;29;20034;-60
2021/12/20 03:54:30;;;;;;;3.85;1.55;;;;;;;14.68;49.33;102456.28;4920741;29;20039;-60
2021/12/20 03:56:55;;;;;;;7.03;1.77;;;;;;;14.68;50.87;102456.28;4937638;29;20110;-59
2021/12/20 03:59:21;;;;;;;6.28;1.98;;;;;;;14.65;49.82;102462.78;4937391;29;20074;-60
2021/12/20 04:01:46;;;;;;;4.35;1.55;;;;;;;14.62;49.99;102448.66;4920143;29;20465;-60
2021/12/20 04:04:11;;;;;;;5.45;1.88;;;;;;;14.63;49.26;102455.78;4937292;29;20370;-60
2021/12/20 04:06:37;;;;;;;6.13;1.77;;;;;;;14.63;50.97;102458.47;4920428;29;20386;-60
2021/12/20 04:09:04;;;;;;;2.97;1.77;;;;;;;14.62;49.63;102452.22;4937692;29;20024;-60
2021/12/20 04:11:29;;;;;;;6.25;1.67;;;;;;;14.62;49.93;102451.34;4937430;29;20038;-59
2021/12/20 04:13:56;;;;;;;16.38;1.73;;;;;;;14.63;50.54;102448.53;4920305;29;20362;-59
2021/12/20 04:16:22;;;;;;;6.20;2.78;;;;;;;14.62;49.79;102456.75;4920624;29;20490;-60
2021/12/20 04:18:47;;;;;;;3.53;1.83;;;;;;;14.61;49.43;102455.88;4937054;29;20497;-60
2021/12/20 04:21:13;;;;;;;14.13;1.40;;;;;;;14.63;49.05;102455.78;4937077;29;20500;-59
2021/12/20 04:23:38;;;;;;;9.73;2.30;;;;;;;14.58;49.81;102456.09;4937400;29;20051;-60
2021/12/20 04:26:04;;;;;;;4.57;1.65;;;;;;;14.62;49.87;102467.53;4920169;29;20028;-59
2021/12/20 04:28:31;;;;;;;8.05;1.70;;;;;;;14.61;50.67;102466.66;4916520;29;20068;-59
2021/12/20 04:30:56;;;;;;;6.28;1.73;;;;;;;14.62;50.49;102463.00;4918326;29;20093;-60
2021/12/20 04:33:21;;;;;;;7.13;1.80;;;;;;;14.63;50.69;102462.00;4918464;29;20111;-59
2021/12/20 04:35:48;;;;;;;5.88;1.55;;;;;;;14.63;48.90;102463.88;4920116;29;20032;-59
2021/12/20 04:38:14;;;;;;;5.00;2.25;;;;;;;14.62;50.64;102463.00;4921241;29;20485;-61
2021/12/20 04:40:39;;;;;;;9.35;1.77;;;;;;;14.64;50.59;102460.19;4920626;29;20034;-59
2021/12/20 04:43:05;;;;;;;4.35;1.48;;;;;;;14.64;49.12;102465.56;4921966;29;20434;-60
2021/12/20 04:45:31;;;;;;;13.02;1.90;;;;;;;14.64;49.81;102460.19;4920422;29;20465;-59
2021/12/20 04:47:57;;;;;;;5.82;2.05;;;;;;;14.62;48.88;102454.91;4921942;29;20067;-59
2021/12/20 04:50:23;;;;;;;7.20;1.58;;;;;;;14.62;49.78;102457.59;4921929;29;20435;-60
2021/12/20 04:52:49;;;;;;;7.57;2.30;;;;;;;14.63;49.29;102463.88;4921838;29;20021;-60
2021/12/20 04:55:15;;;;;;;5.78;1.27;;;;;;;14.57;49.20;102455.22;4922092;29;20040;-60
2021/12/20 04:57:41;;;;;;;6.75;1.67;;;;;;;14.57;49.99;102454.41;4920456;29;20525;-59
2021/12/20 05:00:11;;;;;;;6.68;1.55;;;;;;;14.57;48.66;102455.22;4921623;29;20031;-59
2021/12/20 05:02:37;;;;;;;10.88;2.05;;;;;;;14.58;49.39;102451.56;4921409;29;20060;-60
2021/12/20 05:05:02;;;;;;;7.13;1.50;;;;;;;14.58;49.28;102451.56;4921667;29;20066;-60
2021/12/20 05:07:28;;;;;;;11.45;1.77;;;;;;;14.56;48.60;102452.66;4920092;29;20405;-59
2021/12/20 05:09:59;;;;;;;7.13;1.60;;;;;;;14.55;49.46;102451.81;4920593;29;20024;-60
2021/12/20 05:12:24;;;;;;;6.57;2.10;;;;;;;14.55;49.91;102462.59;4921507;29;20549;-59
2021/12/20 05:14:49;;;;;;;10.32;2.08;;;;;;;14.56;49.42;102458.94;4921800;29;20028;-60
2021/12/20 05:17:15;;;;;;;11.95;2.03;;;;;;;14.54;49.10;102460.84;4921187;29;20027;-59
2021/12/20 05:19:42;;;;;;;16.60;1.98;;;;;;;14.54;48.66;102460.03;4921289;29;20163;-60
2021/12/20 05:22:08;;;;;;;5.85;2.30;;;;;;;14.54;48.42;102455.47;4921212;29;20039;-59
2021/12/20 05:24:33;;;;;;;11.07;1.83;;;;;;;14.53;49.01;102451.06;4921206;29;20533;-59
2021/12/20 05:26:59;;;;;;;8.77;1.23;;;;;;;14.53;48.96;102452.91;4921407;29;20162;-60
2021/12/20 05:29:25;;;;;;;5.28;1.25;;;;;;;14.52;48.49;102452.03;4902243;29;20391;-59
2021/12/20 05:31:51;;;;;;;13.48;1.88;;;;;;;14.51;48.73;102449.47;4900809;29;20028;-59
2021/12/20 05:34:17;;;;;;;6.93;1.42;;;;;;;14.52;49.23;102462.81;4885208;29;20033;-59
2021/12/20 05:36:42;;;;;;;8.85;1.65;;;;;;;14.52;48.86;102462.81;4902157;29;20036;-59
2021/12/20 05:39:07;;;;;;;10.30;2.50;;;;;;;14.50;49.53;102459.38;4902204;29;20092;-60
2021/12/20 05:41:33;;;;;;;5.70;2.03;;;;;;;14.51;48.77;102460.25;4902043;29;20025;-59
2021/12/20 05:43:58;;;;;;;6.65;1.30;;;;;;;14.52;48.67;102473.59;4901764;29;20085;-59
2021/12/20 05:46:24;;;;;;;8.93;2.20;;;;;;;14.52;49.09;102465.50;4900262;29;20454;-59
2021/12/20 05:48:49;;;;;;;5.97;1.45;;;;;;;14.52;48.79;102473.59;4900992;29;20028;-60
2021/12/20 05:51:14;;;;;;;7.30;1.65;;;;;;;14.52;49.01;102476.31;4905880;29;20034;-59
2021/12/20 05:53:40;;;;;;;5.85;2.25;;;;;;;14.51;48.55;102471.91;4918790;29;20075;-59
2021/12/20 05:56:05;;;;;;;5.60;1.33;;;;;;;14.51;49.71;102471.91;4920734;29;20036;-59
2021/12/20 05:58:31;;;;;;;6.75;1.27;;;;;;;14.51;48.81;102471.91;4920334;29;20092;-59
2021/12/20 06:00:56;;;;;;;8.82;1.75;;;;;;;14.52;50.09;102473.59;4904239;29;20120;-60
2021/12/20 06:03:21;;;;;;;8.65;1.83;;;;;;;14.53;49.72;102480.72;4901642;29;20040;-59
2021/12/20 06:05:47;;;;;;;4.32;1.50;;;;;;;14.53;48.76;102480.72;4901577;29;20032;-59
2021/12/20 06:08:12;;;;;;;14.10;2.03;;;;;;;14.52;49.13;102475.44;4901503;29;20028;-60
2021/12/20 06:10:39;;;;;;;11.38;2.25;;;;;;;14.52;48.75;102473.59;4884568;29;20021;-59
2021/12/20 06:13:04;;;;;;;8.02;1.77;;;;;;;14.52;49.72;102484.38;4911669;29;20043;-60
2021/12/20 06:15:30;;;;;;;15.38;2.25;;;;;;;14.51;48.60;102481.81;4919875;29;20021;-59
2021/12/20 06:17:56;;;;;;;6.57;1.90;;;;;;;14.50;49.57;102486.34;4920194;29;20497;-59
2021/12/20 06:20:21;;;;;;;8.00;1.60;;;;;;;14.48;48.44;102482.91;4919917;29;20057;-59
2021/12/20 06:22:47;;;;;;;6.53;1.50;;;;;;;14.49;48.13;102479.22;4918654;29;20024;-60
2021/12/20 06:25:12;;;;;;;11.20;3.15;;;;;;;14.49;49.52;102479.22;4919979;29;20036;-59
2021/12/20 06:27:39;;;;;;;9.52;1.90;;;;;;;14.49;48.86;102489.13;4923658;29;20187;-59
2021/12/20 06:30:08;;;;;;;10.52;1.75;;;;;;;14.48;48.79;102487.44;4937600;29;20016;-60
2021/12/20 06:32:34;;;;;;;6.60;2.50;;;;;;;14.46;48.39;102484.84;4937849;29;20032;-59
2021/12/20 06:34:59;;;;;;;9.60;1.77;;;;;;;14.47;49.39;102486.56;4939081;29;20031;-59
2021/12/20 06:37:24;;;;;;;11.88;2.03;;;;;;;14.46;49.45;102490.22;4924327;29;20390;-59
2021/12/20 06:39:50;;;;;;;14.70;1.92;;;;;;;14.46;48.31;102495.63;4920453;29;20028;-59
2021/12/20 06:42:16;;;;;;;9.40;1.98;;;;;;;14.45;49.43;102493.91;4938573;29;20028;-59
2021/12/20 06:44:41;;;;;;;12.95;1.65;;;;;;;14.44;48.92;102485.94;4938703;29;20030;-59
2021/12/20 06:47:06;;;;;;;5.75;1.40;;;;;;;14.44;48.27;102484.09;4938552;29;20111;-60
2021/12/20 06:49:32;;;;;;;7.85;1.20;;;;;;;14.43;48.54;102485.06;4938626;29;20058;-59
2021/12/20 06:52:00;;;;;;;8.25;2.13;;;;;;;14.43;48.17;102492.31;4938450;29;20042;-60
2021/12/20 06:54:25;;;;;;;6.55;1.60;;;;;;;14.38;48.39;102483.69;4938778;29;20437;-59
2021/12/20 06:56:51;;;;;;;7.60;1.65;;;;;;;14.43;48.04;102493.16;4938322;28;20027;-60
2021/12/20 06:59:16;;;;;;;6.75;1.75;;;;;;;14.43;48.46;102490.44;4937871;29;20384;-60
2021/12/20 07:01:41;;;;;;;10.35;1.50;;;;;;;14.43;48.43;102493.16;4938318;28;20385;-59
2021/12/20 07:04:07;;;;;;;9.40;1.27;;;;;;;14.42;48.26;102496.84;4938145;29;20034;-59
2021/12/20 07:06:32;;;;;;;13.52;1.80;;;;;;;14.40;48.41;102488.00;4938177;29;20496;-59
2021/12/20 07:08:58;;;;;;;10.00;1.52;;;;;;;14.43;49.40;102485.06;4938578;29;20023;-59
2021/12/20 07:11:23;;;;;;;16.80;1.92;;;;;;;14.43;48.59;102484.22;4938317;29;20027;-60
2021/12/20 07:13:50;;;;;;;9.70;2.28;;;;;;;14.44;47.81;102492.19;4936994;29;20027;-59
2021/12/20 07:16:16;;;;;;;7.53;1.52;;;;;;;14.44;47.88;102494.88;4937924;29;20023;-59
2021/12/20 07:18:42;;;;;;;14.57;2.25;;;;;;;14.44;48.20;102502.09;4937767;29;20069;-60
2021/12/20 07:21:07;;;;;;;12.15;2.92;;;;;;;14.43;48.61;102495.00;4938267;28;20035;-60
2021/12/20 07:23:34;;;;;;;7.72;1.90;;;;;;;14.41;48.40;102497.81;4936981;29;20024;-59
2021/12/20 07:26:00;;;;;;;8.30;1.75;;;;;;;14.41;48.15;102503.19;4938559;29;20075;-59
2021/12/20 07:28:26;;;;;;;13.88;1.95;;;;;;;14.41;48.72;102513.97;4936584;29;20052;-59
2021/12/20 07:30:52;;;;;;;14.27;2.42;;;;;;;14.41;48.54;102507.72;4937828;29;20036;-60
2021/12/20 07:33:17;;;;;;;10.10;2.08;;;;;;;14.39;47.66;102520.47;4937955;29;20027;-59
2021/12/20 07:35:43;;;;;;;9.43;1.30;;;;;;;14.41;47.62;102529.28;4938056;29;20099;-60
2021/12/20 07:38:13;;;;;;;9.77;1.98;;;;;;;14.39;47.66;102517.78;4938150;29;20114;-60
2021/12/20 07:40:46;;;;;;;6.97;1.55;;;;;;;14.39;47.96;102515.06;4937300;29;20023;-59
2021/12/20 07:43:14;;;;;;;10.90;1.67;;;;;;;14.40;48.75;102520.38;4937551;29;20425;-60
2021/12/20 07:45:39;;;;;;;11.60;2.47;;;;;;;14.40;47.76;102528.47;4936191;29;20031;-59
2021/12/20 07:48:05;;;;;;;13.65;2.20;;;;;;;14.37;47.30;102517.91;4937199;28;20023;-59
2021/12/20 07:50:30;;;;;;;11.38;2.05;;;;;;;14.40;48.24;102514.97;4937713;29;20020;-59
2021/12/20 07:52:55;;;;;;;11.15;2.03;;;;;;;14.42;47.83;102520.25;4937779;29;20059;-59
2021/12/20 07:55:21;;;;;;;6.93;1.98;;;;;;;14.41;47.91;102519.38;4937527;29;20405;-60
2021/12/20 07:57:46;;;;;;;14.30;2.53;;;;;;;14.42;47.25;102518.41;4937500;29;20031;-60
2021/12/20 08:00:12;;;;;;;10.90;2.40;;;;;;;14.43;48.66;102525.50;4936576;29;20086;-60
2021/12/20 08:02:39;;;;;;;6.55;1.98;;;;;;;14.44;49.05;102529.94;4937431;29;20055;-59
2021/12/20 08:05:05;;;;;;;7.88;1.63;;;;;;;14.46;48.49;102522.59;4937471;29;20088;-59
2021/12/20 08:07:30;;;;;;;11.13;2.42;;;;;;;14.47;47.62;102523.44;4937599;29;20175;-59
2021/12/20 08:09:55;;;;;;;11.00;1.73;;;;;;;14.46;48.45;102522.59;4936802;29;20106;-59
2021/12/20 08:12:21;;;;;;;10.35;1.40;;;;;;;14.48;48.84;102527.88;4937572;28;20055;-59
2021/12/20 08:14:46;;;;;;;20.42;1.70;;;;;;;14.44;47.54;102524.53;4937084;29;20484;-59
2021/12/20 08:17:12;;;;;;;9.57;2.08;;;;;;;14.48;48.49;102526.06;4937334;29;20051;-59
2021/12/20 08:19:37;;;;;;;12.40;1.92;;;;;;;14.49;47.92;102521.50;4937074;29;20037;-60
2021/12/20 08:22:03;;;;;;;5.38;1.60;;;;;;;14.51;47.60;102520.44;4937228;29;20401;-59
2021/12/20 08:24:28;;;;;;;18.52;1.40;;;;;;;14.52;47.12;102532.94;4937234;29;20495;-60
2021/12/20 08:26:54;;;;;;;11.32;2.17;;;;;;;14.49;47.56;102513.41;4937153;29;20035;-60
2021/12/20 08:29:19;;;;;;;11.43;2.15;;;;;;;14.54;47.41;102530.13;4952768;29;20054;-60
2021/12/20 08:31:45;;;;;;;15.75;1.92;;;;;;;14.54;47.55;102530.97;4956229;29;20043;-60
2021/12/20 08:34:10;;;;;;;9.48;1.40;;;;;;;14.52;47.17;102532.94;4955944;29;20075;-59
2021/12/20 08:36:36;;;;;;;12.73;2.33;;;;;;;14.52;47.38;102527.53;4956290;29;20027;-61
2021/12/20 08:39:02;;;;;;;6.93;2.08;;;;;;;14.54;47.18;102530.97;4956054;29;20039;-59
2021/12/20 08:41:28;;;;;;;13.15;2.05;;;;;;;14.55;48.50;102521.91;4956249;29;20035;-59
2021/12/20 08:43:53;;;;;;;6.72;1.95;;;;;;;14.55;47.08;102527.31;4956280;29;20059;-60
2021/12/20 08:46:19;;;;;;;10.77;1.55;;;;;;;14.57;46.92;102524.53;4956183;29;20481;-59
2021/12/20 08:48:45;;;;;;;19.30;2.67;;;;;;;14.57;48.38;102529.91;4955932;29;20043;-59
2021/12/20 08:51:11;;;;;;;11.02;1.90;;;;;;;14.57;47.24;102530.75;4955804;29;20118;-59
2021/12/20 08:53:36;;;;;;;14.98;2.13;;;;;;;14.60;46.82;102531.53;4938604;29;20468;-59
2021/12/20 08:56:03;;;;;;;9.00;2.40;;;;;;;14.60;48.31;102523.44;4955996;29;20477;-60
2021/12/20 08:58:28;;;;;;;12.82;1.90;;;;;;;14.60;46.68;102534.22;4956243;29;20031;-60
2021/12/20 09:00:54;;;;;;;7.18;1.40;;;;;;;14.63;47.97;102539.38;4955860;29;20685;-59
2021/12/20 09:03:20;;;;;;;16.48;2.00;;;;;;;14.64;47.62;102541.09;4955781;29;20444;-59
2021/12/20 09:05:46;;;;;;;7.05;1.58;;;;;;;14.61;48.12;102530.53;4938712;29;20400;-59
2021/12/20 09:08:12;;;;;;;12.40;1.63;;;;;;;14.64;47.20;102543.78;4955958;29;20031;-59
2021/12/20 09:10:38;;;;;;;11.27;2.42;;;;;;;14.63;47.88;102537.53;4955824;29;20087;-59
2021/12/20 09:13:04;;;;;;;12.75;2.28;;;;;;;14.65;46.91;102537.44;4955542;29;20082;-59
2021/12/20 09:15:30;;;;;;;7.97;1.73;;;;;;;14.66;48.14;102542.69;4955839;29;20469;-59
2021/12/20 09:17:56;;;;;;;11.07;1.83;;;;;;;14.66;47.93;102533.72;4955744;28;20122;-59
2021/12/20 09:20:25;;;;;;;12.48;2.42;;;;;;;14.66;46.64;102555.31;4955896;29;20028;-59
2021/12/20 09:22:56;;;;;;;8.23;2.03;;;;;;;14.66;47.17;102545.38;4958828;28;20031;-59
2021/12/20 09:25:24;;;;;;;8.88;2.50;;;;;;;14.68;47.43;102542.59;4943524;29;20027;-59
2021/12/20 09:27:50;;;;;;;5.30;1.92;;;;;;;14.70;48.06;102546.03;4959021;29;20468;-59
2021/12/20 09:30:16;;;;;;;11.02;2.28;;;;;;;14.70;47.51;102546.03;4959016;29;20028;-60
2021/12/20 09:32:42;;;;;;;12.50;2.28;;;;;;;14.71;47.33;102551.34;4959112;29;20420;-60
2021/12/20 09:35:08;;;;;;;14.63;2.17;;;;;;;14.74;47.29;102551.06;4959237;29;20030;-59
2021/12/20 09:37:33;;;;;;;10.20;2.55;;;;;;;14.78;47.18;102560.69;4959238;29;20036;-59
2021/12/20 09:40:00;;;;;;;12.68;2.70;;;;;;;14.82;46.73;102561.31;4959127;29;20393;-59
2021/12/20 09:42:25;;;;;;;11.15;2.10;;;;;;;14.86;47.34;102568.19;4959305;29;20038;-60
2021/12/20 09:44:52;;;;;;;16.10;2.55;;;;;;;14.88;46.95;102563.56;4958975;29;20031;-59
2021/12/20 09:47:17;;;;;;;13.70;2.47;;;;;;;14.93;47.07;102561.38;4926513;29;20062;-59
2021/12/20 09:49:43;;;;;;;11.13;2.60;;;;;;;14.95;46.62;102564.81;4959085;29;20051;-60
2021/12/20 09:52:09;;;;;;;15.57;2.30;;;;;;;14.98;47.54;102565.47;4958944;29;20038;-59
2021/12/20 09:54:34;;;;;;;16.73;2.63;;;;;;;15.01;47.78;102567.06;4942096;29;20062;-60
2021/12/20 09:57:02;;;;;;;11.40;3.17;;;;;;;15.05;47.09;102568.53;4959098;29;20039;-60
2021/12/20 09:59:29;;;;;;;17.20;2.60;;;;;;;15.08;47.15;102571.00;4941934;29;20089;-60
2021/12/20 10:01:55;;;;;;;11.85;2.88;;;;;;;15.12;47.40;102577.91;4958484;29;20050;-59
2021/12/20 10:04:22;;;;;;;10.50;2.83;;;;;;;15.13;47.90;102564.28;4958693;28;20027;-60
2021/12/20 10:06:56;;;;;;;13.35;3.08;;;;;;;15.12;46.46;102559.88;4958517;29;20034;-59
2021/12/20 10:09:26;;;;;;;10.10;2.28;;;;;;;15.17;46.90;102573.00;4958264;29;20028;-59
2021/12/20 10:12:12;;;;;;;13.13;2.08;;;;;;;15.23;46.28;102572.56;4941179;29;20388;-59
2021/12/20 10:14:58;;;;;;;12.13;2.70;;;;;;;15.25;47.47;102576.00;4958109;28;20071;-59
2021/12/20 10:17:26;;;;;;;11.85;2.25;;;;;;;15.25;47.45;102578.69;4957099;28;20043;-59
2021/12/20 10:19:52;;;;;;;12.52;2.67;;;;;;;15.28;46.96;102575.75;4958247;29;20028;-59
2021/12/20 10:22:29;;;;;;;11.77;2.65;;;;;;;15.31;45.84;102580.06;4958123;29;20027;-60
2021/12/20 10:24:58;;;;;;;5.93;2.38;;;;;;;15.30;47.66;102579.19;4957939;29;20484;-60
2021/12/20 10:27:36;;;;;;;19.13;2.33;;;;;;;15.32;46.29;102577.25;4958379;29;20126;-59
2021/12/20 10:30:29;;;;;;;12.35;3.22;;;;;;;15.26;45.96;102566.06;4925165;29;20493;-60
2021/12/20 10:32:55;;;;;;;;;;;;;;;15.29;46.23;102574.78;4958295;28;20027;-59
2021/12/20 10:35:32;;;;;;;18.55;2.17;;;;;;;15.26;47.27;102577.72;4957786;29;20287;-59
2021/12/20 10:38:22;;;;;;;10.93;3.28;;;;;;;15.23;47.63;102569.84;4958017;29;20026;-60
2021/12/20 10:40:53;;;;;;;11.85;3.13;;;;;;;15.21;47.54;102563.72;4957482;28;20488;-59
2021/12/20 10:43:21;;;;;;;14.15;2.53;;;;;;;15.22;45.97;102564.56;4958191;29;20078;-60
2021/12/20 10:45:47;;;;;;;15.80;2.63;;;;;;;15.20;47.32;102564.69;4940263;29;20501;-60
2021/12/20 10:48:12;;;;;;;13.43;2.60;;;;;;;15.19;46.29;102572.91;4940711;29;20027;-59
2021/12/20 10:50:42;;;;;;;14.50;3.30;;;;;;;15.14;46.18;102563.31;4957691;29;20028;-59
2021/12/20 10:53:23;;;;;;;17.75;2.35;;;;;;;15.11;46.39;102563.53;4958087;29;20043;-59
2021/12/20 10:55:48;;;;;;;10.20;3.13;;;;;;;15.10;47.33;102571.78;4941168;29;20028;-59
2021/12/20 10:58:24;;;;;;;29.17;3.55;;;;;;;15.10;45.95;102574.47;4957784;29;20469;-59
2021/12/20 11:04:03;;;;;;;19.13;3.85;;;;;;;15.08;46.06;102568.31;4957544;29;20489;-59
2021/12/20 11:09:14;;;;;;;13.45;3.05;;;;;;;15.12;47.20;102564.41;4957644;29;20031;-60
2021/12/20 11:11:43;;;;;;;13.35;3.58;;;;;;;15.10;47.25;102569.06;4957230;29;20046;-60
2021/12/20 11:14:09;;;;;;;19.70;3.08;;;;;;;15.12;46.02;102577.91;4957382;29;20027;-60
2021/12/20 11:16:39;;;;;;;15.25;2.67;;;;;;;15.13;46.37;102569.69;4957443;29;20089;-60
2021/12/20 11:19:07;;;;;;;14.75;2.83;;;;;;;15.14;47.10;102557.06;4957022;29;20417;-60
2021/12/20 11:21:34;;;;;;;20.02;2.97;;;;;;;15.15;47.39;102556.09;4957377;29;20062;-59
2021/12/20 11:24:00;;;;;;;12.52;3.25;;;;;;;15.20;46.47;102562.00;4957343;29;20027;-60
2021/12/20 11:26:27;;;;;;;29.60;3.60;;;;;;;15.22;45.95;102560.03;4957209;29;20481;-59
2021/12/20 11:28:56;;;;;;;16.30;3.03;;;;;;;15.26;47.19;102566.94;4936525;29;20134;-59
2021/12/20 11:31:22;;;;;;;8.35;2.33;;;;;;;15.23;45.97;102556.34;4938074;29;20059;-59
2021/12/20 11:33:47;;;;;;;23.95;3.13;;;;;;;15.28;47.01;102559.56;4938033;29;20114;-59